sensor_id;sensor_type;location;lat;lon;timestamp;P1;durP1;ratioP1;P2;durP2;ratioP2
12441;SDS011;6285;48.804;9.220;2024-02-21T00:00:08;12.38;;;5.32;;
12441;SDS011;6285;48.804;9.220;2024-02-21T00:02:36;13.18;;;5.88;;
12441;SDS011;6285;48.804;9.220;2024-02-21T00:05:03;11.95;;;6.45;;
12441;SDS011;6285;48.804;9.220;2024-02-21T00:07:32;13.05;;;6.85;;
12441;SDS011;6285;48.804;9.220;2024-02-21T00:09:59;14.82;;;6.88;;
12441;SDS011;6285;48.804;9.220;2024-02-21T00:12:26;16.80;;;6.85;;
12441;SDS011;6285;48.804;9.220;2024-02-21T00:14:53;14.55;;;6.68;;
12441;SDS011;6285;48.804;9.220;2024-02-21T00:17:20;14.15;;;6.43;;
12441;SDS011;6285;48.804;9.220;2024-02-21T00:19:47;12.75;;;6.30;;
12441;SDS011;6285;48.804;9.220;2024-02-21T00:22:14;13.07;;;6.13;;
12441;SDS011;6285;48.804;9.220;2024-02-21T00:24:43;14.82;;;6.03;;
12441;SDS011;6285;48.804;9.220;2024-02-21T00:27:10;13.10;;;7.30;;
12441;SDS011;6285;48.804;9.220;2024-02-21T00:29:37;14.80;;;6.40;;
12441;SDS011;6285;48.804;9.220;2024-02-21T00:32:07;17.10;;;6.72;;
12441;SDS011;6285;48.804;9.220;2024-02-21T00:34:34;11.68;;;6.13;;
12441;SDS011;6285;48.804;9.220;2024-02-21T00:37:01;14.25;;;6.93;;
12441;SDS011;6285;48.804;9.220;2024-02-21T00:39:28;13.25;;;6.68;;
12441;SDS011;6285;48.804;9.220;2024-02-21T00:41:56;13.93;;;6.90;;
12441;SDS011;6285;48.804;9.220;2024-02-21T00:44:23;17.55;;;6.72;;
12441;SDS011;6285;48.804;9.220;2024-02-21T00:46:50;14.43;;;6.43;;
12441;SDS011;6285;48.804;9.220;2024-02-21T00:49:17;18.58;;;6.68;;
12441;SDS011;6285;48.804;9.220;2024-02-21T00:51:44;13.70;;;6.22;;
12441;SDS011;6285;48.804;9.220;2024-02-21T00:54:11;12.05;;;6.15;;
12441;SDS011;6285;48.804;9.220;2024-02-21T00:56:38;14.43;;;6.85;;
12441;SDS011;6285;48.804;9.220;2024-02-21T00:59:07;13.90;;;5.90;;
12441;SDS011;6285;48.804;9.220;2024-02-21T01:01:34;14.00;;;6.28;;
12441;SDS011;6285;48.804;9.220;2024-02-21T01:04:01;13.38;;;6.30;;
12441;SDS011;6285;48.804;9.220;2024-02-21T01:06:28;18.55;;;6.10;;
12441;SDS011;6285;48.804;9.220;2024-02-21T01:08:55;14.23;;;6.50;;
12441;SDS011;6285;48.804;9.220;2024-02-21T01:11:22;15.60;;;6.00;;
12441;SDS011;6285;48.804;9.220;2024-02-21T01:13:49;13.48;;;5.78;;
12441;SDS011;6285;48.804;9.220;2024-02-21T01:16:17;14.40;;;5.55;;
12441;SDS011;6285;48.804;9.220;2024-02-21T01:18:44;13.30;;;5.95;;
12441;SDS011;6285;48.804;9.220;2024-02-21T01:21:11;15.15;;;6.32;;
12441;SDS011;6285;48.804;9.220;2024-02-21T01:23:38;14.77;;;6.45;;
12441;SDS011;6285;48.804;9.220;2024-02-21T01:26:05;13.60;;;5.70;;
12441;SDS011;6285;48.804;9.220;2024-02-21T01:28:33;13.15;;;5.78;;
12441;SDS011;6285;48.804;9.220;2024-02-21T01:31:00;11.70;;;5.82;;
12441;SDS011;6285;48.804;9.220;2024-02-21T01:33:29;14.40;;;6.13;;
12441;SDS011;6285;48.804;9.220;2024-02-21T01:35:59;14.15;;;5.53;;
12441;SDS011;6285;48.804;9.220;2024-02-21T01:38:27;10.80;;;5.47;;
12441;SDS011;6285;48.804;9.220;2024-02-21T01:40:54;12.18;;;5.20;;
12441;SDS011;6285;48.804;9.220;2024-02-21T01:43:21;10.98;;;6.00;;
12441;SDS011;6285;48.804;9.220;2024-02-21T01:45:49;11.27;;;5.75;;
12441;SDS011;6285;48.804;9.220;2024-02-21T01:48:16;10.15;;;5.78;;
12441;SDS011;6285;48.804;9.220;2024-02-21T01:50:45;10.98;;;5.65;;
12441;SDS011;6285;48.804;9.220;2024-02-21T01:53:12;14.10;;;5.65;;
12441;SDS011;6285;48.804;9.220;2024-02-21T01:55:43;14.90;;;5.95;;
12441;SDS011;6285;48.804;9.220;2024-02-21T01:58:10;13.23;;;5.45;;
12441;SDS011;6285;48.804;9.220;2024-02-21T02:00:38;14.00;;;5.93;;
12441;SDS011;6285;48.804;9.220;2024-02-21T02:03:07;11.48;;;6.00;;
12441;SDS011;6285;48.804;9.220;2024-02-21T02:05:35;10.07;;;4.90;;
12441;SDS011;6285;48.804;9.220;2024-02-21T02:08:04;10.80;;;5.25;;
12441;SDS011;6285;48.804;9.220;2024-02-21T02:10:31;11.40;;;4.80;;
12441;SDS011;6285;48.804;9.220;2024-02-21T02:12:58;10.50;;;5.45;;
12441;SDS011;6285;48.804;9.220;2024-02-21T02:15:26;10.00;;;5.00;;
12441;SDS011;6285;48.804;9.220;2024-02-21T02:17:53;10.18;;;5.43;;
12441;SDS011;6285;48.804;9.220;2024-02-21T02:20:20;12.15;;;4.90;;
12441;SDS011;6285;48.804;9.220;2024-02-21T02:22:47;8.90;;;5.00;;
12441;SDS011;6285;48.804;9.220;2024-02-21T02:25:16;10.82;;;5.18;;
12441;SDS011;6285;48.804;9.220;2024-02-21T02:27:43;11.15;;;4.97;;
12441;SDS011;6285;48.804;9.220;2024-02-21T02:30:11;10.35;;;4.97;;
12441;SDS011;6285;48.804;9.220;2024-02-21T02:32:38;9.93;;;5.03;;
12441;SDS011;6285;48.804;9.220;2024-02-21T02:35:05;11.65;;;5.50;;
12441;SDS011;6285;48.804;9.220;2024-02-21T02:37:32;9.85;;;6.00;;
12441;SDS011;6285;48.804;9.220;2024-02-21T02:39:59;12.93;;;5.68;;
12441;SDS011;6285;48.804;9.220;2024-02-21T02:42:29;14.90;;;5.55;;
12441;SDS011;6285;48.804;9.220;2024-02-21T02:44:55;15.77;;;5.82;;
12441;SDS011;6285;48.804;9.220;2024-02-21T02:47:23;10.93;;;6.03;;
12441;SDS011;6285;48.804;9.220;2024-02-21T02:49:50;13.48;;;5.35;;
12441;SDS011;6285;48.804;9.220;2024-02-21T02:52:17;9.75;;;4.95;;
12441;SDS011;6285;48.804;9.220;2024-02-21T02:54:44;13.70;;;5.25;;
12441;SDS011;6285;48.804;9.220;2024-02-21T02:57:16;9.48;;;4.85;;
12441;SDS011;6285;48.804;9.220;2024-02-21T02:59:48;11.90;;;5.50;;
12441;SDS011;6285;48.804;9.220;2024-02-21T03:02:15;11.18;;;5.30;;
12441;SDS011;6285;48.804;9.220;2024-02-21T03:04:42;14.00;;;5.55;;
12441;SDS011;6285;48.804;9.220;2024-02-21T03:07:09;14.30;;;6.13;;
12441;SDS011;6285;48.804;9.220;2024-02-21T03:09:36;13.85;;;6.28;;
12441;SDS011;6285;48.804;9.220;2024-02-21T03:12:04;12.98;;;6.35;;
12441;SDS011;6285;48.804;9.220;2024-02-21T03:14:31;11.57;;;5.40;;
12441;SDS011;6285;48.804;9.220;2024-02-21T03:16:59;11.52;;;5.78;;
12441;SDS011;6285;48.804;9.220;2024-02-21T03:19:27;12.05;;;5.85;;
12441;SDS011;6285;48.804;9.220;2024-02-21T03:21:54;9.40;;;4.68;;
12441;SDS011;6285;48.804;9.220;2024-02-21T03:24:21;9.15;;;4.07;;
12441;SDS011;6285;48.804;9.220;2024-02-21T03:26:48;8.75;;;3.88;;
12441;SDS011;6285;48.804;9.220;2024-02-21T03:29:16;12.40;;;4.35;;
12441;SDS011;6285;48.804;9.220;2024-02-21T03:31:43;8.82;;;3.42;;
12441;SDS011;6285;48.804;9.220;2024-02-21T03:34:11;6.82;;;3.40;;
12441;SDS011;6285;48.804;9.220;2024-02-21T03:36:38;7.72;;;3.47;;
12441;SDS011;6285;48.804;9.220;2024-02-21T03:39:05;8.55;;;3.35;;
12441;SDS011;6285;48.804;9.220;2024-02-21T03:41:33;8.02;;;3.17;;
12441;SDS011;6285;48.804;9.220;2024-02-21T03:44:00;10.95;;;3.50;;
12441;SDS011;6285;48.804;9.220;2024-02-21T03:46:27;9.75;;;3.58;;
12441;SDS011;6285;48.804;9.220;2024-02-21T03:48:54;5.90;;;3.20;;
12441;SDS011;6285;48.804;9.220;2024-02-21T03:51:23;10.85;;;3.58;;
12441;SDS011;6285;48.804;9.220;2024-02-21T03:53:50;6.57;;;3.20;;
12441;SDS011;6285;48.804;9.220;2024-02-21T03:56:17;6.13;;;3.33;;
12441;SDS011;6285;48.804;9.220;2024-02-21T03:58:44;9.48;;;3.88;;
12441;SDS011;6285;48.804;9.220;2024-02-21T04:01:11;10.63;;;3.20;;
12441;SDS011;6285;48.804;9.220;2024-02-21T04:03:38;8.13;;;3.67;;
12441;SDS011;6285;48.804;9.220;2024-02-21T04:06:05;7.72;;;4.07;;
12441;SDS011;6285;48.804;9.220;2024-02-21T04:08:34;9.65;;;4.22;;
12441;SDS011;6285;48.804;9.220;2024-02-21T04:11:01;8.80;;;4.32;;
12441;SDS011;6285;48.804;9.220;2024-02-21T04:13:28;9.18;;;4.22;;
12441;SDS011;6285;48.804;9.220;2024-02-21T04:15:55;11.95;;;4.13;;
12441;SDS011;6285;48.804;9.220;2024-02-21T04:18:22;10.35;;;4.30;;
12441;SDS011;6285;48.804;9.220;2024-02-21T04:20:50;8.52;;;4.18;;
12441;SDS011;6285;48.804;9.220;2024-02-21T04:23:18;9.43;;;4.35;;
12441;SDS011;6285;48.804;9.220;2024-02-21T04:25:46;9.45;;;4.80;;
12441;SDS011;6285;48.804;9.220;2024-02-21T04:28:13;9.55;;;4.57;;
12441;SDS011;6285;48.804;9.220;2024-02-21T04:30:40;11.15;;;4.95;;
12441;SDS011;6285;48.804;9.220;2024-02-21T04:33:07;13.90;;;4.85;;
12441;SDS011;6285;48.804;9.220;2024-02-21T04:35:35;9.35;;;5.07;;
12441;SDS011;6285;48.804;9.220;2024-02-21T04:38:03;13.13;;;5.32;;
12441;SDS011;6285;48.804;9.220;2024-02-21T04:40:30;11.43;;;5.15;;
12441;SDS011;6285;48.804;9.220;2024-02-21T04:42:58;11.02;;;5.10;;
12441;SDS011;6285;48.804;9.220;2024-02-21T04:45:25;13.20;;;5.13;;
12441;SDS011;6285;48.804;9.220;2024-02-21T04:47:52;9.95;;;4.70;;
12441;SDS011;6285;48.804;9.220;2024-02-21T04:50:19;9.75;;;4.65;;
12441;SDS011;6285;48.804;9.220;2024-02-21T04:52:46;9.48;;;4.55;;
12441;SDS011;6285;48.804;9.220;2024-02-21T04:55:13;10.68;;;5.05;;
12441;SDS011;6285;48.804;9.220;2024-02-21T04:57:41;10.30;;;5.07;;
12441;SDS011;6285;48.804;9.220;2024-02-21T05:00:12;9.93;;;4.50;;
12441;SDS011;6285;48.804;9.220;2024-02-21T05:02:39;11.95;;;4.55;;
12441;SDS011;6285;48.804;9.220;2024-02-21T05:05:07;8.20;;;4.10;;
12441;SDS011;6285;48.804;9.220;2024-02-21T05:07:34;6.47;;;3.85;;
12441;SDS011;6285;48.804;9.220;2024-02-21T05:10:01;8.10;;;4.05;;
12441;SDS011;6285;48.804;9.220;2024-02-21T05:12:28;13.43;;;3.95;;
12441;SDS011;6285;48.804;9.220;2024-02-21T05:14:55;8.50;;;3.70;;
12441;SDS011;6285;48.804;9.220;2024-02-21T05:17:24;9.30;;;3.67;;
12441;SDS011;6285;48.804;9.220;2024-02-21T05:19:50;13.30;;;4.32;;
12441;SDS011;6285;48.804;9.220;2024-02-21T05:22:17;7.70;;;3.60;;
12441;SDS011;6285;48.804;9.220;2024-02-21T05:24:45;7.10;;;3.33;;
12441;SDS011;6285;48.804;9.220;2024-02-21T05:27:12;7.15;;;3.50;;
12441;SDS011;6285;48.804;9.220;2024-02-21T05:29:39;12.30;;;3.95;;
12441;SDS011;6285;48.804;9.220;2024-02-21T05:32:06;6.15;;;3.30;;
12441;SDS011;6285;48.804;9.220;2024-02-21T05:34:34;12.25;;;4.20;;
12441;SDS011;6285;48.804;9.220;2024-02-21T05:37:01;9.32;;;4.25;;
12441;SDS011;6285;48.804;9.220;2024-02-21T05:39:28;11.38;;;3.90;;
12441;SDS011;6285;48.804;9.220;2024-02-21T05:41:55;10.98;;;4.28;;
12441;SDS011;6285;48.804;9.220;2024-02-21T05:44:22;8.48;;;4.47;;
12441;SDS011;6285;48.804;9.220;2024-02-21T05:46:49;12.20;;;4.15;;
12441;SDS011;6285;48.804;9.220;2024-02-21T05:49:16;10.55;;;4.85;;
12441;SDS011;6285;48.804;9.220;2024-02-21T05:51:45;10.80;;;4.82;;
12441;SDS011;6285;48.804;9.220;2024-02-21T05:54:12;13.02;;;5.57;;
12441;SDS011;6285;48.804;9.220;2024-02-21T05:56:39;12.13;;;5.15;;
12441;SDS011;6285;48.804;9.220;2024-02-21T05:59:06;14.52;;;5.15;;
12441;SDS011;6285;48.804;9.220;2024-02-21T06:01:33;10.65;;;4.80;;
12441;SDS011;6285;48.804;9.220;2024-02-21T06:04:00;11.10;;;5.00;;
12441;SDS011;6285;48.804;9.220;2024-02-21T06:06:27;17.48;;;6.25;;
12441;SDS011;6285;48.804;9.220;2024-02-21T06:08:55;13.23;;;6.40;;
12441;SDS011;6285;48.804;9.220;2024-02-21T06:11:23;17.08;;;5.38;;
12441;SDS011;6285;48.804;9.220;2024-02-21T06:13:51;12.07;;;5.00;;
12441;SDS011;6285;48.804;9.220;2024-02-21T06:16:18;15.93;;;5.43;;
12441;SDS011;6285;48.804;9.220;2024-02-21T06:18:45;12.30;;;5.72;;
12441;SDS011;6285;48.804;9.220;2024-02-21T06:21:12;13.43;;;6.25;;
12441;SDS011;6285;48.804;9.220;2024-02-21T06:23:41;12.35;;;5.40;;
12441;SDS011;6285;48.804;9.220;2024-02-21T06:26:10;13.10;;;5.63;;
12441;SDS011;6285;48.804;9.220;2024-02-21T06:28:36;14.00;;;5.65;;
12441;SDS011;6285;48.804;9.220;2024-02-21T06:31:03;19.25;;;5.72;;
12441;SDS011;6285;48.804;9.220;2024-02-21T06:33:30;17.83;;;5.32;;
12441;SDS011;6285;48.804;9.220;2024-02-21T06:35:58;16.73;;;5.05;;
12441;SDS011;6285;48.804;9.220;2024-02-21T06:38:25;17.23;;;5.50;;
12441;SDS011;6285;48.804;9.220;2024-02-21T06:40:52;10.85;;;4.70;;
12441;SDS011;6285;48.804;9.220;2024-02-21T06:43:21;9.75;;;4.55;;
12441;SDS011;6285;48.804;9.220;2024-02-21T06:45:48;9.85;;;5.05;;
12441;SDS011;6285;48.804;9.220;2024-02-21T06:48:16;16.17;;;5.85;;
12441;SDS011;6285;48.804;9.220;2024-02-21T06:50:44;15.60;;;4.80;;
12441;SDS011;6285;48.804;9.220;2024-02-21T06:53:11;10.75;;;4.78;;
12441;SDS011;6285;48.804;9.220;2024-02-21T06:55:38;10.27;;;4.30;;
12441;SDS011;6285;48.804;9.220;2024-02-21T06:58:05;11.02;;;3.92;;
12441;SDS011;6285;48.804;9.220;2024-02-21T07:00:38;8.40;;;3.58;;
12441;SDS011;6285;48.804;9.220;2024-02-21T07:03:06;11.02;;;4.13;;
12441;SDS011;6285;48.804;9.220;2024-02-21T07:05:33;12.80;;;3.90;;
12441;SDS011;6285;48.804;9.220;2024-02-21T07:08:00;14.27;;;4.65;;
12441;SDS011;6285;48.804;9.220;2024-02-21T07:10:28;10.60;;;3.35;;
12441;SDS011;6285;48.804;9.220;2024-02-21T07:12:55;11.48;;;3.85;;
12441;SDS011;6285;48.804;9.220;2024-02-21T07:15:22;9.40;;;4.75;;
12441;SDS011;6285;48.804;9.220;2024-02-21T07:17:53;12.25;;;4.03;;
12441;SDS011;6285;48.804;9.220;2024-02-21T07:20:20;12.77;;;4.00;;
12441;SDS011;6285;48.804;9.220;2024-02-21T07:22:47;9.05;;;3.20;;
12441;SDS011;6285;48.804;9.220;2024-02-21T07:25:14;12.02;;;4.68;;
12441;SDS011;6285;48.804;9.220;2024-02-21T07:27:42;11.15;;;4.25;;
12441;SDS011;6285;48.804;9.220;2024-02-21T07:30:09;9.85;;;4.25;;
12441;SDS011;6285;48.804;9.220;2024-02-21T07:32:37;8.82;;;2.90;;
12441;SDS011;6285;48.804;9.220;2024-02-21T07:35:05;9.18;;;3.65;;
12441;SDS011;6285;48.804;9.220;2024-02-21T07:37:35;9.35;;;3.25;;
12441;SDS011;6285;48.804;9.220;2024-02-21T07:40:04;11.35;;;3.85;;
12441;SDS011;6285;48.804;9.220;2024-02-21T07:42:32;11.77;;;3.95;;
12441;SDS011;6285;48.804;9.220;2024-02-21T07:44:59;12.07;;;4.03;;
12441;SDS011;6285;48.804;9.220;2024-02-21T07:47:26;9.63;;;4.30;;
12441;SDS011;6285;48.804;9.220;2024-02-21T07:49:53;8.73;;;3.75;;
12441;SDS011;6285;48.804;9.220;2024-02-21T07:52:22;10.05;;;4.20;;
12441;SDS011;6285;48.804;9.220;2024-02-21T07:54:50;10.70;;;3.92;;
12441;SDS011;6285;48.804;9.220;2024-02-21T07:57:17;6.80;;;3.88;;
12441;SDS011;6285;48.804;9.220;2024-02-21T07:59:44;13.25;;;4.22;;
12441;SDS011;6285;48.804;9.220;2024-02-21T08:02:12;9.95;;;4.10;;
12441;SDS011;6285;48.804;9.220;2024-02-21T08:04:39;14.52;;;4.30;;
12441;SDS011;6285;48.804;9.220;2024-02-21T08:07:06;10.82;;;4.10;;
12441;SDS011;6285;48.804;9.220;2024-02-21T08:09:35;7.82;;;3.55;;
12441;SDS011;6285;48.804;9.220;2024-02-21T08:12:04;9.25;;;4.18;;
12441;SDS011;6285;48.804;9.220;2024-02-21T08:14:32;9.20;;;3.60;;
12441;SDS011;6285;48.804;9.220;2024-02-21T08:16:59;11.02;;;3.80;;
12441;SDS011;6285;48.804;9.220;2024-02-21T08:50:22;5.70;;;2.70;;
12441;SDS011;6285;48.804;9.220;2024-02-21T08:52:52;6.18;;;2.60;;
12441;SDS011;6285;48.804;9.220;2024-02-21T08:55:20;6.50;;;2.40;;
12441;SDS011;6285;48.804;9.220;2024-02-21T08:57:48;9.50;;;2.85;;
12441;SDS011;6285;48.804;9.220;2024-02-21T09:00:15;7.30;;;2.92;;
12441;SDS011;6285;48.804;9.220;2024-02-21T09:02:46;7.95;;;2.90;;
12441;SDS011;6285;48.804;9.220;2024-02-21T09:05:14;7.20;;;2.35;;
12441;SDS011;6285;48.804;9.220;2024-02-21T09:07:42;7.15;;;2.40;;
12441;SDS011;6285;48.804;9.220;2024-02-21T09:10:10;8.20;;;2.60;;
12441;SDS011;6285;48.804;9.220;2024-02-21T09:12:37;5.75;;;2.10;;
12441;SDS011;6285;48.804;9.220;2024-02-21T09:15:08;7.45;;;2.83;;
12441;SDS011;6285;48.804;9.220;2024-02-21T09:17:38;5.30;;;2.20;;
12441;SDS011;6285;48.804;9.220;2024-02-21T09:20:06;6.45;;;2.50;;
12441;SDS011;6285;48.804;9.220;2024-02-21T09:22:37;7.45;;;2.40;;
12441;SDS011;6285;48.804;9.220;2024-02-21T09:25:07;6.88;;;2.25;;
12441;SDS011;6285;48.804;9.220;2024-02-21T09:27:36;6.38;;;2.80;;
12441;SDS011;6285;48.804;9.220;2024-02-21T09:30:03;7.18;;;3.60;;
12441;SDS011;6285;48.804;9.220;2024-02-21T09:32:31;10.07;;;2.67;;
12441;SDS011;6285;48.804;9.220;2024-02-21T09:34:58;6.65;;;2.40;;
12441;SDS011;6285;48.804;9.220;2024-02-21T09:37:26;8.27;;;2.80;;
12441;SDS011;6285;48.804;9.220;2024-02-21T09:39:56;9.05;;;2.60;;
12441;SDS011;6285;48.804;9.220;2024-02-21T09:42:26;8.38;;;2.50;;
12441;SDS011;6285;48.804;9.220;2024-02-21T09:45:03;8.07;;;2.50;;
12441;SDS011;6285;48.804;9.220;2024-02-21T09:47:37;7.43;;;2.42;;
12441;SDS011;6285;48.804;9.220;2024-02-21T09:50:06;9.98;;;2.60;;
12441;SDS011;6285;48.804;9.220;2024-02-21T09:52:39;8.25;;;2.40;;
12441;SDS011;6285;48.804;9.220;2024-02-21T09:55:08;8.80;;;3.17;;
12441;SDS011;6285;48.804;9.220;2024-02-21T09:57:39;5.43;;;2.40;;
12441;SDS011;6285;48.804;9.220;2024-02-21T10:00:07;5.10;;;2.30;;
12441;SDS011;6285;48.804;9.220;2024-02-21T10:02:34;5.82;;;2.17;;
12441;SDS011;6285;48.804;9.220;2024-02-21T10:05:02;5.93;;;2.50;;
12441;SDS011;6285;48.804;9.220;2024-02-21T10:07:33;5.95;;;1.80;;
12441;SDS011;6285;48.804;9.220;2024-02-21T10:10:00;4.22;;;1.75;;
12441;SDS011;6285;48.804;9.220;2024-02-21T10:12:27;4.03;;;1.80;;
12441;SDS011;6285;48.804;9.220;2024-02-21T10:15:01;5.55;;;1.92;;
12441;SDS011;6285;48.804;9.220;2024-02-21T10:17:28;5.45;;;2.00;;
12441;SDS011;6285;48.804;9.220;2024-02-21T10:19:55;4.85;;;2.10;;
12441;SDS011;6285;48.804;9.220;2024-02-21T10:22:21;6.30;;;2.10;;
12441;SDS011;6285;48.804;9.220;2024-02-21T10:24:50;3.85;;;1.88;;
12441;SDS011;6285;48.804;9.220;2024-02-21T10:27:19;7.03;;;2.58;;
12441;SDS011;6285;48.804;9.220;2024-02-21T10:29:50;6.57;;;2.10;;
12441;SDS011;6285;48.804;9.220;2024-02-21T10:32:18;7.43;;;2.75;;
12441;SDS011;6285;48.804;9.220;2024-02-21T10:34:45;5.25;;;2.08;;
12441;SDS011;6285;48.804;9.220;2024-02-21T10:37:16;5.25;;;2.03;;
12441;SDS011;6285;48.804;9.220;2024-02-21T10:39:43;7.65;;;2.10;;
12441;SDS011;6285;48.804;9.220;2024-02-21T10:42:11;5.55;;;1.90;;
12441;SDS011;6285;48.804;9.220;2024-02-21T10:44:39;8.10;;;2.80;;
12441;SDS011;6285;48.804;9.220;2024-02-21T10:47:07;7.50;;;2.40;;
12441;SDS011;6285;48.804;9.220;2024-02-21T10:49:36;4.93;;;2.28;;
12441;SDS011;6285;48.804;9.220;2024-02-21T10:52:06;7.60;;;3.10;;
12441;SDS011;6285;48.804;9.220;2024-02-21T10:54:39;7.35;;;3.25;;
12441;SDS011;6285;48.804;9.220;2024-02-21T10:57:07;7.15;;;2.80;;
12441;SDS011;6285;48.804;9.220;2024-02-21T10:59:36;5.63;;;1.75;;
12441;SDS011;6285;48.804;9.220;2024-02-21T11:02:04;4.07;;;2.13;;
12441;SDS011;6285;48.804;9.220;2024-02-21T11:04:31;6.57;;;2.22;;
12441;SDS011;6285;48.804;9.220;2024-02-21T11:07:02;7.15;;;2.28;;
12441;SDS011;6285;48.804;9.220;2024-02-21T11:09:30;7.25;;;2.20;;
12441;SDS011;6285;48.804;9.220;2024-02-21T11:11:58;5.93;;;2.35;;
12441;SDS011;6285;48.804;9.220;2024-02-21T11:14:26;7.85;;;2.10;;
12441;SDS011;6285;48.804;9.220;2024-02-21T11:16:53;5.60;;;1.90;;
12441;SDS011;6285;48.804;9.220;2024-02-21T11:19:24;3.42;;;1.73;;
12441;SDS011;6285;48.804;9.220;2024-02-21T11:21:51;5.40;;;2.03;;
12441;SDS011;6285;48.804;9.220;2024-02-21T11:24:27;8.27;;;2.60;;
12441;SDS011;6285;48.804;9.220;2024-02-21T11:26:55;6.32;;;3.63;;
12441;SDS011;6285;48.804;9.220;2024-02-21T11:29:25;4.38;;;2.17;;
12441;SDS011;6285;48.804;9.220;2024-02-21T11:31:53;7.63;;;3.85;;
12441;SDS011;6285;48.804;9.220;2024-02-21T11:34:21;5.28;;;2.10;;
12441;SDS011;6285;48.804;9.220;2024-02-21T11:36:48;6.10;;;2.80;;
12441;SDS011;6285;48.804;9.220;2024-02-21T11:39:19;7.90;;;2.30;;
12441;SDS011;6285;48.804;9.220;2024-02-21T11:41:48;8.27;;;2.00;;
12441;SDS011;6285;48.804;9.220;2024-02-21T11:44:29;4.97;;;2.00;;
12441;SDS011;6285;48.804;9.220;2024-02-21T11:46:56;5.72;;;1.70;;
12441;SDS011;6285;48.804;9.220;2024-02-21T11:49:24;5.97;;;2.20;;
12441;SDS011;6285;48.804;9.220;2024-02-21T11:51:57;4.07;;;1.85;;
12441;SDS011;6285;48.804;9.220;2024-02-21T11:54:25;5.65;;;2.03;;
12441;SDS011;6285;48.804;9.220;2024-02-21T11:56:53;5.45;;;2.50;;
12441;SDS011;6285;48.804;9.220;2024-02-21T11:59:20;5.68;;;2.10;;
12441;SDS011;6285;48.804;9.220;2024-02-21T12:01:48;4.82;;;2.17;;
12441;SDS011;6285;48.804;9.220;2024-02-21T12:04:16;5.00;;;1.80;;
12441;SDS011;6285;48.804;9.220;2024-02-21T12:06:44;8.23;;;2.63;;
12441;SDS011;6285;48.804;9.220;2024-02-21T12:09:13;2.85;;;1.55;;
12441;SDS011;6285;48.804;9.220;2024-02-21T12:11:41;5.90;;;2.97;;
12441;SDS011;6285;48.804;9.220;2024-02-21T12:14:09;2.92;;;1.60;;
12441;SDS011;6285;48.804;9.220;2024-02-21T12:16:37;5.20;;;2.03;;
12441;SDS011;6285;48.804;9.220;2024-02-21T12:19:05;5.15;;;1.70;;
12441;SDS011;6285;48.804;9.220;2024-02-21T12:21:33;4.75;;;1.80;;
12441;SDS011;6285;48.804;9.220;2024-02-21T12:24:11;3.60;;;1.52;;
12441;SDS011;6285;48.804;9.220;2024-02-21T12:26:39;3.63;;;2.08;;
12441;SDS011;6285;48.804;9.220;2024-02-21T12:29:07;4.15;;;1.55;;
12441;SDS011;6285;48.804;9.220;2024-02-21T12:31:36;4.57;;;1.80;;
12441;SDS011;6285;48.804;9.220;2024-02-21T12:34:04;4.20;;;1.55;;
12441;SDS011;6285;48.804;9.220;2024-02-21T12:36:32;5.93;;;1.50;;
12441;SDS011;6285;48.804;9.220;2024-02-21T12:39:00;8.20;;;3.00;;
12441;SDS011;6285;48.804;9.220;2024-02-21T12:41:29;3.50;;;1.85;;
12441;SDS011;6285;48.804;9.220;2024-02-21T12:43:58;5.32;;;1.75;;
12441;SDS011;6285;48.804;9.220;2024-02-21T12:46:28;3.25;;;1.63;;
12441;SDS011;6285;48.804;9.220;2024-02-21T12:48:57;3.25;;;1.67;;
12441;SDS011;6285;48.804;9.220;2024-02-21T12:51:24;4.32;;;1.80;;
12441;SDS011;6285;48.804;9.220;2024-02-21T12:53:52;5.20;;;1.58;;
12441;SDS011;6285;48.804;9.220;2024-02-21T12:56:19;4.32;;;1.60;;
12441;SDS011;6285;48.804;9.220;2024-02-21T12:58:47;4.63;;;1.83;;
12441;SDS011;6285;48.804;9.220;2024-02-21T13:01:15;3.42;;;1.67;;
12441;SDS011;6285;48.804;9.220;2024-02-21T13:03:44;3.75;;;1.77;;
12441;SDS011;6285;48.804;9.220;2024-02-21T13:06:13;4.07;;;1.30;;
12441;SDS011;6285;48.804;9.220;2024-02-21T13:08:40;3.15;;;1.48;;
12441;SDS011;6285;48.804;9.220;2024-02-21T13:11:09;2.70;;;1.10;;
12441;SDS011;6285;48.804;9.220;2024-02-21T13:13:36;2.33;;;1.33;;
12441;SDS011;6285;48.804;9.220;2024-02-21T13:16:03;3.70;;;1.95;;
12441;SDS011;6285;48.804;9.220;2024-02-21T13:18:30;4.22;;;1.83;;
12441;SDS011;6285;48.804;9.220;2024-02-21T13:20:59;2.53;;;1.33;;
12441;SDS011;6285;48.804;9.220;2024-02-21T13:23:26;3.05;;;1.48;;
12441;SDS011;6285;48.804;9.220;2024-02-21T13:25:53;4.57;;;2.42;;
12441;SDS011;6285;48.804;9.220;2024-02-21T13:28:20;4.10;;;1.73;;
12441;SDS011;6285;48.804;9.220;2024-02-21T13:30:47;3.60;;;2.00;;
12441;SDS011;6285;48.804;9.220;2024-02-21T13:33:15;5.28;;;1.70;;
12441;SDS011;6285;48.804;9.220;2024-02-21T13:35:42;2.92;;;1.20;;
12441;SDS011;6285;48.804;9.220;2024-02-21T13:38:11;3.03;;;1.10;;
12441;SDS011;6285;48.804;9.220;2024-02-21T13:40:39;2.97;;;1.55;;
12441;SDS011;6285;48.804;9.220;2024-02-21T13:43:07;3.70;;;1.58;;
12441;SDS011;6285;48.804;9.220;2024-02-21T13:45:34;3.00;;;1.83;;
12441;SDS011;6285;48.804;9.220;2024-02-21T13:48:01;2.88;;;1.40;;
12441;SDS011;6285;48.804;9.220;2024-02-21T13:50:31;7.03;;;1.60;;
12441;SDS011;6285;48.804;9.220;2024-02-21T13:53:05;4.10;;;1.45;;
12441;SDS011;6285;48.804;9.220;2024-02-21T13:55:35;4.45;;;1.13;;
12441;SDS011;6285;48.804;9.220;2024-02-21T13:58:02;4.38;;;1.75;;
12441;SDS011;6285;48.804;9.220;2024-02-21T14:00:30;4.07;;;1.20;;
12441;SDS011;6285;48.804;9.220;2024-02-21T14:02:59;3.13;;;1.38;;
12441;SDS011;6285;48.804;9.220;2024-02-21T14:05:26;2.90;;;1.30;;
12441;SDS011;6285;48.804;9.220;2024-02-21T14:07:55;3.33;;;2.10;;
12441;SDS011;6285;48.804;9.220;2024-02-21T14:10:22;3.63;;;1.92;;
12441;SDS011;6285;48.804;9.220;2024-02-21T14:12:51;3.20;;;1.90;;
12441;SDS011;6285;48.804;9.220;2024-02-21T14:15:18;5.25;;;2.42;;
12441;SDS011;6285;48.804;9.220;2024-02-21T14:17:45;3.58;;;1.40;;
12441;SDS011;6285;48.804;9.220;2024-02-21T14:20:12;3.33;;;1.63;;
12441;SDS011;6285;48.804;9.220;2024-02-21T14:22:40;3.22;;;2.00;;
12441;SDS011;6285;48.804;9.220;2024-02-21T14:25:08;3.38;;;1.88;;
12441;SDS011;6285;48.804;9.220;2024-02-21T14:27:35;1.73;;;1.08;;
12441;SDS011;6285;48.804;9.220;2024-02-21T14:30:06;3.92;;;1.45;;
12441;SDS011;6285;48.804;9.220;2024-02-21T14:32:35;2.53;;;1.27;;
12441;SDS011;6285;48.804;9.220;2024-02-21T14:35:02;1.98;;;1.00;;
12441;SDS011;6285;48.804;9.220;2024-02-21T14:37:31;3.40;;;1.98;;
12441;SDS011;6285;48.804;9.220;2024-02-21T14:39:58;2.45;;;1.70;;
12441;SDS011;6285;48.804;9.220;2024-02-21T14:42:26;5.82;;;3.40;;
12441;SDS011;6285;48.804;9.220;2024-02-21T14:44:56;5.90;;;2.55;;
12441;SDS011;6285;48.804;9.220;2024-02-21T14:47:30;4.32;;;1.95;;
12441;SDS011;6285;48.804;9.220;2024-02-21T14:49:57;3.72;;;1.98;;
12441;SDS011;6285;48.804;9.220;2024-02-21T14:52:24;3.53;;;1.30;;
12441;SDS011;6285;48.804;9.220;2024-02-21T14:54:52;3.10;;;1.23;;
12441;SDS011;6285;48.804;9.220;2024-02-21T14:57:19;4.10;;;2.38;;
12441;SDS011;6285;48.804;9.220;2024-02-21T14:59:46;4.18;;;2.45;;
12441;SDS011;6285;48.804;9.220;2024-02-21T15:02:15;3.63;;;2.10;;
12441;SDS011;6285;48.804;9.220;2024-02-21T15:04:43;5.50;;;2.95;;
12441;SDS011;6285;48.804;9.220;2024-02-21T15:07:11;8.05;;;4.40;;
12441;SDS011;6285;48.804;9.220;2024-02-21T15:09:38;2.13;;;1.25;;
12441;SDS011;6285;48.804;9.220;2024-02-21T15:12:05;2.20;;;1.40;;
12441;SDS011;6285;48.804;9.220;2024-02-21T15:14:32;2.40;;;1.10;;
12441;SDS011;6285;48.804;9.220;2024-02-21T15:16:59;2.65;;;1.20;;
12441;SDS011;6285;48.804;9.220;2024-02-21T15:19:26;3.75;;;1.52;;
12441;SDS011;6285;48.804;9.220;2024-02-21T15:21:55;2.67;;;1.40;;
12441;SDS011;6285;48.804;9.220;2024-02-21T15:24:22;2.45;;;1.20;;
12441;SDS011;6285;48.804;9.220;2024-02-21T15:26:49;2.42;;;1.50;;
12441;SDS011;6285;48.804;9.220;2024-02-21T15:29:16;3.45;;;1.95;;